createdAt,value
2019-02-15T00:00:37.765Z,306.10
2019-02-15T00:01:38.006Z,306.36
2019-02-15T00:02:38.218Z,305.53
2019-02-15T00:03:38.462Z,306.01
2019-02-15T00:04:38.802Z,306.07
2019-02-15T00:05:38.908Z,305.79
2019-02-15T00:06:39.151Z,305.99
2019-02-15T00:07:39.364Z,306.38
2019-02-15T00:08:39.581Z,305.58
2019-02-15T00:09:39.841Z,306.45
2019-02-15T00:10:40.084Z,306.38
2019-02-15T00:11:40.328Z,306.12
2019-02-15T00:12:40.655Z,305.58
2019-02-15T00:13:40.742Z,305.44
2019-02-15T00:14:41.018Z,305.83
2019-02-15T00:15:41.239Z,306.52
2019-02-15T00:16:41.477Z,306.18
2019-02-15T00:17:41.689Z,305.62
2019-02-15T00:18:41.923Z,306.02
2019-02-15T00:19:42.154Z,305.45
2019-02-15T00:20:42.475Z,305.53
2019-02-15T00:21:42.621Z,306.18
2019-02-15T00:22:42.826Z,306.45
2019-02-15T00:23:43.067Z,305.75
2019-02-15T00:24:43.311Z,305.87
2019-02-15T00:25:43.518Z,305.61
2019-02-15T00:26:43.773Z,305.46
2019-02-15T00:27:44.002Z,305.59
2019-02-15T00:28:44.275Z,305.81
2019-02-15T00:29:44.456Z,306.28
2019-02-15T00:30:44.693Z,305.99
2019-02-15T00:31:44.931Z,306.27
2019-02-15T00:32:45.143Z,306.24
2019-02-15T00:33:45.376Z,306.34
2019-02-15T00:34:45.628Z,305.56
2019-02-15T00:35:45.839Z,305.75
2019-02-15T00:36:46.112Z,305.74
2019-02-15T00:37:46.365Z,306.02
2019-02-15T00:38:46.529Z,305.59
2019-02-15T00:39:46.779Z,306.05
2019-02-15T00:40:46.999Z,306.39
2019-02-15T00:41:47.239Z,306.21
2019-02-15T00:42:47.432Z,306.24
2019-02-15T00:43:47.679Z,305.63
2019-02-15T00:44:47.946Z,305.35
2019-02-15T00:45:48.321Z,305.53
2019-02-15T00:46:48.403Z,305.42
2019-02-15T00:47:48.612Z,305.73
2019-02-15T00:48:49.095Z,305.87
2019-02-15T00:49:49.094Z,305.89
2019-02-15T00:50:49.325Z,306.62
2019-02-15T00:51:49.579Z,306.46
2019-02-15T00:52:49.774Z,306.22
2019-02-15T00:53:50.084Z,306.15
2019-02-15T00:54:50.243Z,306.15
2019-02-15T00:55:50.456Z,305.39
2019-02-15T00:56:50.706Z,305.92
2019-02-15T00:57:50.934Z,305.72
2019-02-15T00:58:51.152Z,306.01
2019-02-15T00:59:51.390Z,306.75
2019-02-15T01:00:51.628Z,306.90
2019-02-15T01:01:51.898Z,305.67
2019-02-15T01:02:52.085Z,306.02
2019-02-15T01:03:52.322Z,306.58
2019-02-15T01:04:52.553Z,305.43
2019-02-15T01:05:52.783Z,305.25
2019-02-15T01:06:53.047Z,305.95
2019-02-15T01:07:53.278Z,305.57
2019-02-15T01:08:53.486Z,305.93
2019-02-15T01:09:53.796Z,306.41
2019-02-15T01:10:53.918Z,306.15
2019-02-15T01:11:54.202Z,305.28
2019-02-15T01:12:54.430Z,305.56
2019-02-15T01:13:54.642Z,306.45
2019-02-15T01:14:54.890Z,306.38
2019-02-15T01:15:55.104Z,306.53
2019-02-15T01:16:55.328Z,305.56
2019-02-15T01:17:55.611Z,305.53
2019-02-15T01:18:55.920Z,305.61
2019-02-15T01:19:56.056Z,306.85
2019-02-15T01:20:56.269Z,305.85
2019-02-15T01:21:56.520Z,306.31
2019-02-15T01:22:56.746Z,306.13
2019-02-15T01:23:56.960Z,305.71
2019-02-15T01:24:57.206Z,306.02
2019-02-15T01:25:57.420Z,306.60
2019-02-15T01:26:57.753Z,306.34
2019-02-15T01:27:57.893Z,305.77
2019-02-15T01:28:58.108Z,305.84
2019-02-15T01:29:58.358Z,306.37
2019-02-15T01:30:58.577Z,305.67
2019-02-15T01:31:58.830Z,306.47
2019-02-15T01:32:59.034Z,306.62
2019-02-15T01:33:59.269Z,306.45
2019-02-15T01:34:59.632Z,306.45
2019-02-15T01:35:59.731Z,306.22
2019-02-15T01:36:59.984Z,305.75
2019-02-15T01:38:00.192Z,306.35
2019-02-15T01:39:00.427Z,305.78
2019-02-15T01:40:00.677Z,306.01
2019-02-15T01:41:00.888Z,306.09
2019-02-15T01:42:01.223Z,305.88
2019-02-15T01:43:01.403Z,306.35
2019-02-15T01:44:01.546Z,306.06
2019-02-15T01:45:01.818Z,305.61
2019-02-15T01:46:02.043Z,306.82
2019-02-15T01:47:02.273Z,306.57
2019-02-15T01:48:02.544Z,306.31
2019-02-15T01:49:02.728Z,305.94
2019-02-15T01:50:02.969Z,305.64
2019-02-15T01:51:03.263Z,305.34
2019-02-15T01:52:03.474Z,306.69
2019-02-15T01:53:03.674Z,305.43
2019-02-15T01:54:03.896Z,306.11
2019-02-15T01:55:04.101Z,306.04
2019-02-15T01:56:04.330Z,305.69
2019-02-15T01:57:04.588Z,305.44
2019-02-15T01:58:04.838Z,306.60
2019-02-15T01:59:05.046Z,305.48
2019-02-15T02:00:05.399Z,305.86
2019-02-15T02:01:05.522Z,306.52
2019-02-15T02:02:05.762Z,306.54
2019-02-15T02:03:06.047Z,306.33
2019-02-15T02:04:06.222Z,305.97
2019-02-15T02:05:06.452Z,306.23
2019-02-15T02:06:06.676Z,305.45
2019-02-15T02:07:06.923Z,305.74
2019-02-15T02:08:07.341Z,305.28
2019-02-15T02:09:07.410Z,306.10
2019-02-15T02:10:07.624Z,305.61
2019-02-15T02:11:07.854Z,306.14
2019-02-15T02:12:08.105Z,305.65
2019-02-15T02:13:08.336Z,305.70
2019-02-15T02:14:08.548Z,307.18
2019-02-15T02:15:08.780Z,306.45
2019-02-15T02:16:09.041Z,305.95
2019-02-15T02:17:09.226Z,306.12
2019-02-15T02:18:09.475Z,306.74
2019-02-15T02:19:09.691Z,306.50
2019-02-15T02:20:09.925Z,305.71
2019-02-15T02:21:10.170Z,306.06
2019-02-15T02:22:10.388Z,305.61
2019-02-15T02:23:10.620Z,306.03
2019-02-15T02:24:10.943Z,306.49
2019-02-15T02:25:11.073Z,306.37
2019-02-15T02:26:11.541Z,306.08
2019-02-15T02:27:11.534Z,305.84
2019-02-15T02:28:11.792Z,306.26
2019-02-15T02:29:12.002Z,305.78
2019-02-15T02:30:12.247Z,306.08
2019-02-15T02:31:12.505Z,305.65
2019-02-15T02:32:12.736Z,306.35
2019-02-15T02:33:13.011Z,305.98
2019-02-15T02:34:13.175Z,306.71
2019-02-15T02:35:13.402Z,306.20
2019-02-15T02:36:13.663Z,306.29
2019-02-15T02:37:13.879Z,306.65
2019-02-15T02:38:14.146Z,305.74
2019-02-15T02:39:14.340Z,306.24
2019-02-15T02:40:14.569Z,306.26
2019-02-15T02:41:14.951Z,305.98
2019-02-15T02:42:15.082Z,306.21
2019-02-15T02:43:15.344Z,305.58
2019-02-15T02:44:15.538Z,306.56
2019-02-15T02:45:15.750Z,307.09
2019-02-15T02:46:16.016Z,305.83
2019-02-15T02:47:16.243Z,306.38
2019-02-15T02:48:16.522Z,305.86
2019-02-15T02:49:16.817Z,305.97
2019-02-15T02:50:16.914Z,305.22
2019-02-15T02:51:17.174Z,305.48
2019-02-15T02:52:17.399Z,306.43
2019-02-15T02:53:17.647Z,305.85
2019-02-15T02:54:17.858Z,306.24
2019-02-15T02:55:18.088Z,305.71
2019-02-15T02:56:18.328Z,306.53
2019-02-15T02:57:18.570Z,306.14
2019-02-15T02:58:18.768Z,306.05
2019-02-15T02:59:18.984Z,306.86
2019-02-15T03:00:19.236Z,305.95
2019-02-15T03:01:19.470Z,305.58
2019-02-15T03:02:19.669Z,306.09
2019-02-15T03:03:19.935Z,305.30
2019-02-15T03:04:20.167Z,306.97
2019-02-15T03:05:20.453Z,306.45
2019-02-15T03:06:20.620Z,306.15
2019-02-15T03:07:20.844Z,306.44
2019-02-15T03:08:21.078Z,305.49
2019-02-15T03:09:21.333Z,305.82
2019-02-15T03:10:21.610Z,306.67
2019-02-15T03:11:21.823Z,305.70
2019-02-15T03:12:22.039Z,305.46
2019-02-15T03:13:22.291Z,306.02
2019-02-15T03:14:22.608Z,305.76
2019-02-15T03:15:22.771Z,306.21
2019-02-15T03:16:23.001Z,305.50
2019-02-15T03:17:23.219Z,306.01
2019-02-15T03:18:23.467Z,306.30
2019-02-15T03:19:23.675Z,305.76
2019-02-15T03:20:30.827Z,305.60
2019-02-15T03:21:25.174Z,306.22
2019-02-15T03:22:24.496Z,305.59
2019-02-15T03:23:24.616Z,306.30
2019-02-15T03:24:24.837Z,305.72
2019-02-15T03:25:25.088Z,305.77
2019-02-15T03:26:25.329Z,306.08
2019-02-15T03:27:25.554Z,305.82
2019-02-15T03:28:25.772Z,306.38
2019-02-15T03:29:26.019Z,306.29
2019-02-15T03:30:26.291Z,306.38
2019-02-15T03:31:26.486Z,306.24
2019-02-15T03:32:26.686Z,305.99
2019-02-15T03:33:26.937Z,305.23
2019-02-15T03:34:27.171Z,306.68
2019-02-15T03:35:27.360Z,306.75
2019-02-15T03:36:27.616Z,305.02
2019-02-15T03:37:27.839Z,306.35
2019-02-15T03:38:28.167Z,305.55
2019-02-15T03:39:28.304Z,305.65
2019-02-15T03:40:28.521Z,305.83
2019-02-15T03:41:28.788Z,306.57
2019-02-15T03:42:28.966Z,305.97
2019-02-15T03:43:29.201Z,305.83
2019-02-15T03:44:29.462Z,305.45
2019-02-15T03:45:29.676Z,306.10
2019-02-15T03:46:29.993Z,305.12
2019-02-15T03:47:30.141Z,305.78
2019-02-15T03:48:30.409Z,306.19
2019-02-15T03:49:30.623Z,306.37
2019-02-15T03:50:30.841Z,306.40
2019-02-15T03:51:31.088Z,306.20
2019-02-15T03:52:31.294Z,305.69
2019-02-15T03:53:31.528Z,306.06
2019-02-15T03:54:31.792Z,306.43
2019-02-15T03:55:32.081Z,306.57
2019-02-15T03:56:32.256Z,306.41
2019-02-15T03:57:32.428Z,306.18
2019-02-15T03:58:32.660Z,306.83
2019-02-15T03:59:32.924Z,305.60
2019-02-15T04:00:33.137Z,306.49
2019-02-15T04:01:33.429Z,306.65
2019-02-15T04:02:33.595Z,305.52
2019-02-15T04:03:34.064Z,305.86
2019-02-15T04:04:34.407Z,306.60
2019-02-15T04:05:34.401Z,306.14
2019-02-15T04:06:34.657Z,305.79
2019-02-15T04:07:34.859Z,306.64
2019-02-15T04:08:35.099Z,305.91
2019-02-15T04:09:35.321Z,306.04
2019-02-15T04:10:35.563Z,306.02
2019-02-15T04:11:35.863Z,306.47
2019-02-15T04:12:35.993Z,306.00
2019-02-15T04:13:36.229Z,305.90
2019-02-15T04:14:36.484Z,306.66
2019-02-15T04:15:36.677Z,306.44
2019-02-15T04:16:36.929Z,306.17
2019-02-15T04:17:37.149Z,306.17
2019-02-15T04:18:37.408Z,306.51
2019-02-15T04:19:37.655Z,306.22
2019-02-15T04:20:37.802Z,305.57
2019-02-15T04:21:38.094Z,306.48
2019-02-15T04:22:38.315Z,306.46
2019-02-15T04:23:38.566Z,306.41
2019-02-15T04:24:38.802Z,305.92
2019-02-15T04:25:39.044Z,305.60
2019-02-15T04:26:39.234Z,305.41
2019-02-15T04:27:39.521Z,307.08
2019-02-15T04:28:39.769Z,306.94
2019-02-15T04:29:39.975Z,305.77
2019-02-15T04:30:40.188Z,305.97
2019-02-15T04:31:40.437Z,306.18
2019-02-15T04:32:40.647Z,306.09
2019-02-15T04:33:40.879Z,306.22
2019-02-15T04:34:41.122Z,306.29
2019-02-15T04:35:41.356Z,306.89
2019-02-15T04:36:41.718Z,306.69
2019-02-15T04:37:41.819Z,306.22
2019-02-15T04:38:42.052Z,306.36
2019-02-15T04:39:42.296Z,305.60
2019-02-15T04:40:42.505Z,306.02
2019-02-15T04:41:42.763Z,305.90
2019-02-15T04:42:42.980Z,306.25
2019-02-15T04:43:43.190Z,305.45
2019-02-15T04:44:43.544Z,305.73
2019-02-15T04:45:43.665Z,305.81
2019-02-15T04:46:43.911Z,306.96
2019-02-15T04:47:44.138Z,306.19
2019-02-15T04:48:44.333Z,305.76
2019-02-15T04:49:44.617Z,306.93
2019-02-15T04:50:44.811Z,306.36
2019-02-15T04:51:45.044Z,306.16
2019-02-15T04:52:45.322Z,305.77
2019-02-15T04:53:45.466Z,306.68
2019-02-15T04:54:45.734Z,305.78
2019-02-15T04:55:45.951Z,306.78
2019-02-15T04:56:46.180Z,306.77
2019-02-15T04:57:46.439Z,306.73
2019-02-15T04:58:46.648Z,306.71
2019-02-15T04:59:46.915Z,305.62
2019-02-15T05:00:47.113Z,306.06
2019-02-15T05:01:47.313Z,306.65
2019-02-15T05:02:47.587Z,306.80
2019-02-15T05:03:47.791Z,305.78
2019-02-15T05:04:48.067Z,306.37
2019-02-15T05:05:48.233Z,306.52
2019-02-15T05:06:48.468Z,305.65
2019-02-15T05:07:48.728Z,306.03
2019-02-15T05:08:48.980Z,305.68
2019-02-15T05:09:49.282Z,305.79
2019-02-15T05:10:49.402Z,306.91
2019-02-15T05:11:49.632Z,306.70
2019-02-15T05:12:49.910Z,305.96
2019-02-15T05:13:50.118Z,305.97
2019-02-15T05:14:53.097Z,306.63
2019-02-15T05:15:50.577Z,305.73
2019-02-15T05:16:50.794Z,305.66
2019-02-15T05:17:51.197Z,306.09
2019-02-15T05:18:51.281Z,306.17
2019-02-15T05:19:51.541Z,306.87
2019-02-15T05:20:51.755Z,306.98
2019-02-15T05:21:51.951Z,306.09
2019-02-15T05:22:52.501Z,305.88
2019-02-15T05:23:52.458Z,306.89
2019-02-15T05:24:52.686Z,305.61
2019-02-15T05:25:52.990Z,306.38
2019-02-15T05:26:53.120Z,306.34
2019-02-15T05:27:53.381Z,306.01
2019-02-15T05:28:53.600Z,306.22
2019-02-15T05:29:53.835Z,306.45
2019-02-15T05:30:54.077Z,306.64
2019-02-15T05:31:54.306Z,306.02
2019-02-15T05:32:54.584Z,306.12
2019-02-15T05:33:54.791Z,306.82
2019-02-15T05:34:54.993Z,306.32
2019-02-15T05:35:55.233Z,306.05
2019-02-15T05:36:55.444Z,306.75
2019-02-15T05:37:55.695Z,306.47
2019-02-15T05:38:55.903Z,306.50
2019-02-15T05:39:56.128Z,306.48
2019-02-15T05:40:56.376Z,306.08
2019-02-15T05:41:56.633Z,305.48
2019-02-15T05:42:57.093Z,306.60
2019-02-15T05:43:57.075Z,305.63
2019-02-15T05:45:03.314Z,306.27
2019-02-15T05:45:58.564Z,306.75
2019-02-15T05:46:57.774Z,305.98
2019-02-15T05:47:58.047Z,306.57
2019-02-15T05:48:58.242Z,306.21
2019-02-15T05:49:58.496Z,306.72
2019-02-15T05:50:58.811Z,306.14
2019-02-15T05:51:58.935Z,306.35
2019-02-15T05:52:59.194Z,305.80
2019-02-15T05:53:59.394Z,306.64
2019-02-15T05:54:59.622Z,306.85
2019-02-15T05:55:59.854Z,305.70
2019-02-15T05:57:00.087Z,306.28
2019-02-15T05:58:00.370Z,306.57
2019-02-15T05:59:00.689Z,306.08
2019-02-15T06:00:00.788Z,306.18
2019-02-15T06:01:01.017Z,306.92
2019-02-15T06:02:01.244Z,307.19
2019-02-15T06:03:01.520Z,305.77
2019-02-15T06:04:01.712Z,306.00
2019-02-15T06:05:01.951Z,306.21
2019-02-15T06:06:02.199Z,306.39
2019-02-15T06:07:02.448Z,306.74
2019-02-15T06:08:02.669Z,307.01
2019-02-15T06:09:02.866Z,306.81
2019-02-15T06:10:03.113Z,306.75
2019-02-15T06:11:07.515Z,306.68
2019-02-15T06:12:03.543Z,306.12
2019-02-15T06:13:03.790Z,306.85
2019-02-15T06:14:04.022Z,306.55
2019-02-15T06:15:14.439Z,306.12
2019-02-15T06:16:05.483Z,307.13
2019-02-15T06:17:04.698Z,305.90
2019-02-15T06:18:04.934Z,306.55
2019-02-15T06:19:05.156Z,305.95
2019-02-15T06:20:05.413Z,305.75
2019-02-15T06:21:05.652Z,306.80
2019-02-15T06:22:05.872Z,307.06
2019-02-15T06:23:06.165Z,307.07
2019-02-15T06:24:06.408Z,306.56
2019-02-15T06:25:06.590Z,306.28
2019-02-15T06:26:06.820Z,306.33
2019-02-15T06:27:07.024Z,306.13
2019-02-15T06:28:07.287Z,306.30
2019-02-15T06:29:07.491Z,305.82
2019-02-15T06:30:07.710Z,306.36
2019-02-15T06:31:07.986Z,305.80
2019-02-15T06:32:08.320Z,306.57
2019-02-15T06:33:08.436Z,307.14
2019-02-15T06:34:08.658Z,306.43
2019-02-15T06:35:08.919Z,307.23
2019-02-15T06:36:09.163Z,306.19
2019-02-15T06:37:09.378Z,306.67
2019-02-15T06:38:09.603Z,306.27
2019-02-15T06:39:09.854Z,307.14
2019-02-15T06:40:10.168Z,307.25
2019-02-15T06:41:12.178Z,306.63
2019-02-15T06:42:10.546Z,307.22
2019-02-15T06:43:10.784Z,307.02
2019-02-15T06:44:11.036Z,306.31
2019-02-15T06:45:11.228Z,306.17
2019-02-15T06:46:11.496Z,306.60
2019-02-15T06:47:11.704Z,306.09
2019-02-15T06:48:11.972Z,306.72
2019-02-15T06:49:12.236Z,306.93
2019-02-15T06:50:12.371Z,307.43
2019-02-15T06:51:12.638Z,306.66
2019-02-15T06:52:12.867Z,307.62
2019-02-15T06:53:13.098Z,306.25
2019-02-15T06:54:13.355Z,307.20
2019-02-15T06:55:13.556Z,306.86
2019-02-15T06:56:13.862Z,306.11
2019-02-15T06:57:13.977Z,306.93
2019-02-15T06:58:14.224Z,306.78
2019-02-15T06:59:14.493Z,307.26
2019-02-15T07:00:14.686Z,307.32
2019-02-15T07:01:14.937Z,307.72
2019-02-15T07:02:15.169Z,306.21
2019-02-15T07:03:15.375Z,307.11
2019-02-15T07:04:15.685Z,307.49
2019-02-15T07:05:15.915Z,307.05
2019-02-15T07:06:16.096Z,307.21
2019-02-15T07:07:16.291Z,307.44
2019-02-15T07:08:16.522Z,306.92
2019-02-15T07:09:16.790Z,307.25
2019-02-15T07:10:17.002Z,307.62
2019-02-15T07:11:17.245Z,307.03
2019-02-15T07:12:17.472Z,306.63
2019-02-15T07:13:17.804Z,306.80
2019-02-15T07:14:17.943Z,307.48
2019-02-15T07:15:18.147Z,306.83
2019-02-15T07:16:18.397Z,307.27
2019-02-15T07:17:18.654Z,307.02
2019-02-15T07:18:18.820Z,306.54
2019-02-15T07:19:19.074Z,306.52
2019-02-15T07:20:19.298Z,307.02
2019-02-15T07:21:19.921Z,306.98
2019-02-15T07:22:19.761Z,306.66
2019-02-15T07:23:20.018Z,306.43
2019-02-15T07:24:20.240Z,306.66
2019-02-15T07:25:20.464Z,306.44
2019-02-15T07:26:20.715Z,307.21
2019-02-15T07:27:20.927Z,306.52
2019-02-15T07:28:21.157Z,307.24
2019-02-15T07:29:21.450Z,306.65
2019-02-15T07:30:21.600Z,306.83
2019-02-15T07:31:21.854Z,307.21
2019-02-15T07:32:22.083Z,306.93
2019-02-15T07:33:22.311Z,307.75
2019-02-15T07:34:22.584Z,307.48
2019-02-15T07:35:22.781Z,307.31
2019-02-15T07:36:22.996Z,307.51
2019-02-15T07:37:23.300Z,307.60
2019-02-15T07:38:23.461Z,307.47
2019-02-15T07:39:23.717Z,306.98
2019-02-15T07:40:23.938Z,306.88
2019-02-15T07:41:24.151Z,306.97
2019-02-15T07:42:24.416Z,307.50
2019-02-15T07:43:24.662Z,308.07
2019-02-15T07:44:24.936Z,308.09
2019-02-15T07:45:25.147Z,307.89
2019-02-15T07:46:25.413Z,308.05
2019-02-15T07:47:25.649Z,307.96
2019-02-15T07:48:25.811Z,308.26
2019-02-15T07:49:26.796Z,307.91
2019-02-15T07:50:26.309Z,307.76
2019-02-15T07:51:26.520Z,307.80
2019-02-15T07:52:26.735Z,307.48
2019-02-15T07:53:26.982Z,307.92
2019-02-15T07:54:27.361Z,307.64
2019-02-15T07:55:27.466Z,307.27
2019-02-15T07:56:27.679Z,308.09
2019-02-15T07:57:27.907Z,307.59
2019-02-15T07:58:28.132Z,307.55
2019-02-15T07:59:28.378Z,308.04
2019-02-15T08:00:28.625Z,307.76
2019-02-15T08:01:28.834Z,307.70
2019-02-15T08:02:29.144Z,307.75
2019-02-15T08:03:29.283Z,307.86
2019-02-15T08:04:29.533Z,307.67
2019-02-15T08:05:29.757Z,308.16
2019-02-15T08:06:29.977Z,308.18
2019-02-15T08:07:30.234Z,307.58
2019-02-15T08:08:30.434Z,307.70
2019-02-15T08:09:30.686Z,307.68
2019-02-15T08:10:30.961Z,308.13
2019-02-15T08:11:31.110Z,307.94
2019-02-15T08:12:31.369Z,308.12
2019-02-15T08:13:31.580Z,307.90
2019-02-15T08:14:31.823Z,307.45
2019-02-15T08:15:36.226Z,307.51
2019-02-15T08:16:32.289Z,307.86
2019-02-15T08:17:32.516Z,307.67
2019-02-15T08:18:32.787Z,308.13
2019-02-15T08:19:32.952Z,308.09
2019-02-15T08:20:33.181Z,308.28
2019-02-15T08:21:33.427Z,307.93
2019-02-15T08:22:33.670Z,308.41
2019-02-15T08:23:33.883Z,308.23
2019-02-15T08:24:34.130Z,307.95
2019-02-15T08:25:34.357Z,307.44
2019-02-15T08:26:34.632Z,307.91
2019-02-15T08:27:34.908Z,307.69
2019-02-15T08:28:35.043Z,308.06
2019-02-15T08:29:35.285Z,308.13
2019-02-15T08:30:35.498Z,307.62
2019-02-15T08:31:35.749Z,308.12
2019-02-15T08:32:35.993Z,307.96
2019-02-15T08:33:36.207Z,308.00
2019-02-15T08:34:36.456Z,308.34
2019-02-15T08:35:36.816Z,308.29
2019-02-15T08:36:36.928Z,308.09
2019-02-15T08:37:37.181Z,308.28
2019-02-15T08:38:37.395Z,307.48
2019-02-15T08:39:37.630Z,307.91
2019-02-15T08:40:37.889Z,308.11
2019-02-15T08:41:38.085Z,307.87
2019-02-15T08:42:38.337Z,307.61
2019-02-15T08:43:38.673Z,307.55
2019-02-15T08:44:38.783Z,308.31
2019-02-15T08:45:39.032Z,307.93
2019-02-15T08:46:39.272Z,308.31
2019-02-15T08:47:39.784Z,307.91
2019-02-15T08:48:45.951Z,307.57
2019-02-15T08:49:40.956Z,307.44
2019-02-15T08:50:40.224Z,307.73
2019-02-15T08:51:40.461Z,307.95
2019-02-15T08:52:40.630Z,307.89
2019-02-15T08:53:40.851Z,307.92
2019-02-15T08:54:41.095Z,308.14
2019-02-15T08:55:41.337Z,307.46
2019-02-15T08:56:41.558Z,307.94
2019-02-15T08:57:41.801Z,307.70
2019-02-15T08:58:42.017Z,307.67
2019-02-15T08:59:42.263Z,308.35
2019-02-15T09:00:42.774Z,307.60
2019-02-15T09:01:42.720Z,307.27
2019-02-15T09:02:42.965Z,308.01
2019-02-15T09:03:43.165Z,307.74
2019-02-15T09:04:43.393Z,307.76
2019-02-15T09:05:43.649Z,307.89
2019-02-15T09:06:43.877Z,308.09
2019-02-15T09:07:44.150Z,307.64
2019-02-15T09:08:44.426Z,307.89
2019-02-15T09:09:44.544Z,307.99
2019-02-15T09:10:44.807Z,307.42
2019-02-15T09:11:45.019Z,307.94
2019-02-15T09:12:45.263Z,307.86
2019-02-15T09:13:45.484Z,308.01
2019-02-15T09:14:45.702Z,308.00
2019-02-15T09:15:45.944Z,307.93
2019-02-15T09:16:46.264Z,307.55
2019-02-15T09:17:46.416Z,307.85
2019-02-15T09:18:46.634Z,307.91
2019-02-15T09:19:47.044Z,308.13
2019-02-15T09:20:47.122Z,307.66
2019-02-15T09:21:47.339Z,307.92
2019-02-15T09:22:47.589Z,307.50
2019-02-15T09:23:47.802Z,307.81
2019-02-15T09:24:48.059Z,307.66
2019-02-15T09:25:48.263Z,308.02
2019-02-15T09:26:48.498Z,308.01
2019-02-15T09:27:48.727Z,307.81
2019-02-15T09:28:48.942Z,308.23
2019-02-15T09:29:49.177Z,307.99
2019-02-15T09:30:49.422Z,308.14
2019-02-15T09:31:49.635Z,308.84
2019-02-15T09:32:49.955Z,307.75
2019-02-15T09:33:50.093Z,308.22
2019-02-15T09:34:50.324Z,308.40
2019-02-15T09:35:50.572Z,307.75
2019-02-15T09:36:50.808Z,308.44
2019-02-15T09:37:51.031Z,307.68
2019-02-15T09:38:51.253Z,307.85
2019-02-15T09:39:51.493Z,307.78
2019-02-15T09:40:51.779Z,307.93
2019-02-15T09:41:52.032Z,307.67
2019-02-15T09:42:52.178Z,307.98
2019-02-15T09:43:52.424Z,307.55
2019-02-15T09:44:52.646Z,308.15
2019-02-15T09:45:52.903Z,307.78
2019-02-15T09:46:53.128Z,307.71
2019-02-15T09:47:53.351Z,307.25
2019-02-15T09:48:53.617Z,307.87
2019-02-15T09:49:53.901Z,307.73
2019-02-15T09:50:54.068Z,307.85
2019-02-15T09:51:55.507Z,308.64
2019-02-15T09:52:54.497Z,307.93
2019-02-15T09:53:54.740Z,307.96
2019-02-15T09:54:54.992Z,307.43
2019-02-15T09:55:55.237Z,308.02
2019-02-15T09:56:55.503Z,308.35
2019-02-15T09:57:55.776Z,307.43
2019-02-15T09:58:55.908Z,308.18
2019-02-15T09:59:56.132Z,307.79
2019-02-15T10:00:56.385Z,307.13
2019-02-15T10:01:56.610Z,307.01
2019-02-15T10:02:56.830Z,307.37
2019-02-15T10:03:57.081Z,308.02
2019-02-15T10:04:57.276Z,307.92
2019-02-15T10:05:57.587Z,307.57
2019-02-15T10:06:57.745Z,308.12
2019-02-15T10:07:57.973Z,307.74
2019-02-15T10:08:58.220Z,307.10
2019-02-15T10:09:58.420Z,307.81
2019-02-15T10:10:58.674Z,307.00
2019-02-15T10:11:58.912Z,307.35
2019-02-15T10:12:59.128Z,307.32
2019-02-15T10:13:59.430Z,307.51
2019-02-15T10:14:59.581Z,307.30
2019-02-15T10:15:59.808Z,307.02
2019-02-15T10:17:00.027Z,307.04
2019-02-15T10:18:00.273Z,307.06
2019-02-15T10:19:00.529Z,306.79
2019-02-15T10:20:00.755Z,307.68
2019-02-15T10:21:00.974Z,308.00
2019-02-15T10:22:01.207Z,307.18
2019-02-15T10:23:01.483Z,307.45
2019-02-15T10:24:01.695Z,308.36
2019-02-15T10:25:01.932Z,306.84
2019-02-15T10:26:02.148Z,307.89
2019-02-15T10:27:02.358Z,307.10
2019-02-15T10:28:02.599Z,307.46
2019-02-15T10:29:02.861Z,306.84
2019-02-15T10:30:03.079Z,306.83
2019-02-15T10:31:03.449Z,307.30
2019-02-15T10:32:03.566Z,307.77
2019-02-15T10:33:03.792Z,307.43
2019-02-15T10:34:04.034Z,307.33
2019-02-15T10:35:04.279Z,307.57
2019-02-15T10:36:04.497Z,308.39
2019-02-15T10:37:04.704Z,307.13
2019-02-15T10:38:04.927Z,308.12
2019-02-15T10:39:05.521Z,307.02
2019-02-15T10:40:05.417Z,307.48
2019-02-15T10:41:05.633Z,307.24
2019-02-15T10:42:05.854Z,307.37
2019-02-15T10:43:06.069Z,307.55
2019-02-15T10:44:06.317Z,308.00
2019-02-15T10:45:06.557Z,306.97
2019-02-15T10:46:06.776Z,306.85
2019-02-15T10:47:13.870Z,307.56
2019-02-15T10:48:08.224Z,307.72
2019-02-15T10:49:07.464Z,307.88
2019-02-15T10:50:07.683Z,307.45
2019-02-15T10:51:07.919Z,307.67
2019-02-15T10:52:08.178Z,307.42
2019-02-15T10:53:08.402Z,308.04
2019-02-15T10:54:08.644Z,307.44
2019-02-15T10:55:08.929Z,307.67
2019-02-15T10:56:09.076Z,307.00
2019-02-15T10:57:09.366Z,306.93
2019-02-15T10:58:09.583Z,307.42
2019-02-15T10:59:11.122Z,307.88
2019-02-15T11:00:10.053Z,307.90
2019-02-15T11:01:10.260Z,307.17
2019-02-15T11:02:10.510Z,307.88
2019-02-15T11:03:10.756Z,307.25
2019-02-15T11:04:11.076Z,307.01
2019-02-15T11:05:11.215Z,307.00
2019-02-15T11:06:11.411Z,307.64
2019-02-15T11:07:11.711Z,307.48
2019-02-15T11:08:11.888Z,307.08
2019-02-15T11:09:12.135Z,307.26
2019-02-15T11:10:12.352Z,307.46
2019-02-15T11:11:12.582Z,307.75
2019-02-15T11:12:12.935Z,307.37
2019-02-15T11:13:13.034Z,307.03
2019-02-15T11:14:13.291Z,307.19
2019-02-15T11:15:13.498Z,306.88
2019-02-15T11:16:13.732Z,306.64
2019-02-15T11:17:13.989Z,306.97
2019-02-15T11:18:14.202Z,307.48
2019-02-15T11:19:14.464Z,307.57
2019-02-15T11:20:14.789Z,307.33
2019-02-15T11:21:14.957Z,308.05
2019-02-15T11:22:22.113Z,307.36
2019-02-15T11:23:15.417Z,306.76
2019-02-15T11:24:15.609Z,308.20
2019-02-15T11:25:15.824Z,306.65
2019-02-15T11:26:24.275Z,307.41
2019-02-15T11:27:22.974Z,307.51
2019-02-15T11:28:16.556Z,307.07
2019-02-15T11:29:16.736Z,306.75
2019-02-15T11:30:16.973Z,307.82
2019-02-15T11:31:17.206Z,307.70
2019-02-15T11:32:17.472Z,307.34
2019-02-15T11:33:17.677Z,307.40
2019-02-15T11:34:17.909Z,307.35
2019-02-15T11:35:18.109Z,307.35
2019-02-15T11:36:18.447Z,307.66
2019-02-15T11:37:18.625Z,306.71
2019-02-15T11:38:18.831Z,307.38
2019-02-15T11:39:19.073Z,306.84
2019-02-15T11:40:19.285Z,307.70
2019-02-15T11:41:19.545Z,307.59
2019-02-15T11:42:19.779Z,307.60
2019-02-15T11:43:19.987Z,306.88
2019-02-15T11:44:20.258Z,306.87
2019-02-15T11:45:20.556Z,306.33
2019-02-15T11:46:20.719Z,307.55
2019-02-15T11:47:20.941Z,307.35
2019-02-15T11:48:21.150Z,306.56
2019-02-15T11:49:21.430Z,307.56
2019-02-15T11:50:21.609Z,307.54
2019-02-15T11:51:21.851Z,307.12
2019-02-15T11:52:22.088Z,307.60
2019-02-15T11:53:22.437Z,306.45
2019-02-15T11:54:23.670Z,306.97
2019-02-15T11:55:22.758Z,306.89
2019-02-15T11:56:22.999Z,307.19
2019-02-15T11:57:23.253Z,307.02
2019-02-15T11:58:23.467Z,307.27
2019-02-15T11:59:23.698Z,306.85
2019-02-15T12:00:23.942Z,306.64
2019-02-15T12:01:24.261Z,307.50
2019-02-15T12:02:24.424Z,306.50
2019-02-15T12:03:24.652Z,306.90
2019-02-15T12:04:24.878Z,306.96
2019-02-15T12:05:25.119Z,306.82
2019-02-15T12:06:25.335Z,306.96
2019-02-15T12:07:25.581Z,306.53
2019-02-15T12:08:25.786Z,306.15
2019-02-15T12:09:26.051Z,306.82
2019-02-15T12:10:26.259Z,306.82
2019-02-15T12:11:26.479Z,306.52
2019-02-15T12:12:26.726Z,306.13
2019-02-15T12:13:26.927Z,307.41
2019-02-15T12:14:27.151Z,307.60
2019-02-15T12:15:27.419Z,307.40
2019-02-15T12:16:27.872Z,306.39
2019-02-15T12:17:27.919Z,306.83
2019-02-15T12:18:28.163Z,307.25
2019-02-15T12:19:28.317Z,306.68
2019-02-15T12:20:28.575Z,306.42
2019-02-15T12:21:28.796Z,305.98
2019-02-15T12:22:29.045Z,306.93
2019-02-15T12:23:29.264Z,306.73
2019-02-15T12:24:29.485Z,306.70
2019-02-15T12:25:29.727Z,306.60
2019-02-15T12:26:30.075Z,306.90
2019-02-15T12:27:30.193Z,306.79
2019-02-15T12:28:30.639Z,306.73
2019-02-15T12:29:30.637Z,306.41
2019-02-15T12:30:30.869Z,306.39
2019-02-15T12:31:31.109Z,307.22